createdAt,value
2022-08-24T00:00:58.033Z,8.70
2022-08-24T00:04:59.907Z,8.73
2022-08-24T00:09:01.827Z,8.70
2022-08-24T00:13:03.745Z,7.23
2022-08-24T00:17:05.831Z,8.23
2022-08-24T00:21:08.243Z,9.20
2022-08-24T00:25:11.602Z,8.03
2022-08-24T00:29:14.841Z,8.03
2022-08-24T00:33:16.765Z,7.73
2022-08-24T00:37:18.581Z,9.80
2022-08-24T00:41:20.410Z,7.90
2022-08-24T00:45:22.540Z,8.33
2022-08-24T00:49:35.810Z,8.30
2022-08-24T00:53:44.102Z,7.50
2022-08-24T00:57:49.309Z,8.20
2022-08-24T01:01:51.960Z,7.83
2022-08-24T01:05:54.029Z,9.10
2022-08-24T01:09:59.185Z,9.60
2022-08-24T01:14:02.155Z,9.47
2022-08-24T01:18:23.413Z,8.80
2022-08-24T01:22:45.688Z,11.00
2022-08-24T01:26:49.722Z,11.87
2022-08-24T01:30:51.482Z,10.53
2022-08-24T01:34:54.056Z,9.73
2022-08-24T01:38:57.875Z,9.77
2022-08-24T01:42:59.700Z,9.17
2022-08-24T01:47:01.942Z,9.50
2022-08-24T01:51:08.639Z,8.87
2022-08-24T01:55:12.409Z,11.43
2022-08-24T01:59:16.600Z,9.13
2022-08-24T02:03:27.656Z,10.77
2022-08-24T02:07:39.534Z,10.33
2022-08-24T02:11:41.335Z,9.80
2022-08-24T02:15:49.524Z,11.33
2022-08-24T02:19:57.476Z,9.40
2022-08-24T02:23:59.365Z,8.50
2022-08-24T02:28:01.842Z,8.93
2022-08-24T02:32:04.242Z,8.47
2022-08-24T02:36:25.454Z,9.07
2022-08-24T02:40:27.764Z,8.97
2022-08-24T02:44:29.609Z,9.80
2022-08-24T02:48:31.546Z,8.93
2022-08-24T02:52:33.285Z,9.60
2022-08-24T02:56:35.080Z,9.77
2022-08-24T03:00:38.592Z,9.17
2022-08-24T03:04:40.548Z,8.80
2022-08-24T03:08:46.464Z,9.87
2022-08-24T03:12:59.516Z,9.33
2022-08-24T03:17:01.418Z,10.57
2022-08-24T03:21:03.625Z,8.93
2022-08-24T03:25:05.728Z,12.27
2022-08-24T03:29:07.885Z,11.23
2022-08-24T03:33:09.999Z,11.83
2022-08-24T03:37:13.960Z,11.70
2022-08-24T03:41:15.714Z,11.73
2022-08-24T03:45:17.649Z,12.40
2022-08-24T03:49:20.025Z,11.37
2022-08-24T03:53:22.097Z,11.33
2022-08-24T03:57:26.493Z,11.97
2022-08-24T04:01:29.790Z,10.93
2022-08-24T04:05:34.941Z,10.80
2022-08-24T04:09:36.967Z,12.13
2022-08-24T04:13:38.827Z,11.07
2022-08-24T04:17:40.619Z,10.40
2022-08-24T04:21:45.472Z,11.37
2022-08-24T04:25:48.145Z,11.60
2022-08-24T04:29:50.007Z,11.87
2022-08-24T04:33:54.886Z,12.37
2022-08-24T04:37:59.353Z,10.20
2022-08-24T04:42:03.191Z,13.00
2022-08-24T04:46:06.857Z,11.33
2022-08-24T04:50:08.905Z,10.07
2022-08-24T04:54:11.219Z,10.77
2022-08-24T04:58:17.133Z,10.93
2022-08-24T05:02:20.971Z,11.43
2022-08-24T05:06:25.534Z,11.70
2022-08-24T05:10:33.479Z,10.40
2022-08-24T05:14:35.750Z,11.30
2022-08-24T05:18:37.984Z,10.10
2022-08-24T05:22:39.881Z,14.23
2022-08-24T05:26:42.327Z,12.27
2022-08-24T05:30:44.109Z,11.20
2022-08-24T05:34:45.905Z,10.30
2022-08-24T05:38:48.171Z,9.67
2022-08-24T05:42:50.414Z,10.85
2022-08-24T05:46:53.370Z,10.70
2022-08-24T05:50:56.488Z,12.87
2022-08-24T05:54:59.971Z,10.60
2022-08-24T05:59:02.227Z,10.63
2022-08-24T06:03:04.290Z,10.13
2022-08-24T06:07:09.213Z,12.90
2022-08-24T06:11:11.047Z,11.87
2022-08-24T06:15:13.342Z,10.57
2022-08-24T06:19:17.731Z,11.37
2022-08-24T06:23:19.480Z,10.43
2022-08-24T06:27:21.738Z,10.30
2022-08-24T06:31:27.067Z,9.83
2022-08-24T06:35:29.747Z,10.57
2022-08-24T06:39:31.896Z,10.70
2022-08-24T06:43:34.357Z,9.80
2022-08-24T06:47:38.919Z,9.52
2022-08-24T06:51:40.904Z,10.60
2022-08-24T06:55:57.613Z,10.82
2022-08-24T06:59:59.475Z,10.93
2022-08-24T07:04:01.329Z,10.00
2022-08-24T07:08:04.082Z,11.45
2022-08-24T07:12:07.461Z,11.18
2022-08-24T07:16:10.733Z,11.75
2022-08-24T07:20:13.070Z,10.77
2022-08-24T07:24:17.415Z,12.20
2022-08-24T07:28:27.710Z,12.43
2022-08-24T07:32:34.086Z,14.60
2022-08-24T07:36:38.932Z,12.67
2022-08-24T07:41:09.401Z,12.07
2022-08-24T07:45:10.145Z,12.47
2022-08-24T07:49:29.332Z,12.77
2022-08-24T07:53:52.573Z,12.67
2022-08-24T07:57:55.195Z,11.50
2022-08-24T08:01:58.827Z,13.10
2022-08-24T08:06:03.972Z,12.13
2022-08-24T08:10:06.653Z,10.77
2022-08-24T08:14:11.369Z,11.25
2022-08-24T08:18:13.462Z,10.50
2022-08-24T08:22:33.762Z,10.88
2022-08-24T08:26:35.656Z,13.18
2022-08-24T08:30:37.714Z,14.23
2022-08-24T08:34:39.496Z,10.57
2022-08-24T08:38:43.094Z,13.10
2022-08-24T08:42:59.751Z,10.93
2022-08-24T08:47:14.129Z,12.00
2022-08-24T08:51:59.426Z,11.10
2022-08-24T08:56:14.066Z,9.48
2022-08-24T09:00:32.080Z,9.95
2022-08-24T09:05:21.383Z,9.85
2022-08-24T09:09:33.065Z,9.18
2022-08-24T09:13:44.544Z,9.93
2022-08-24T09:18:21.047Z,11.02
2022-08-24T09:22:25.830Z,8.45
2022-08-24T09:26:59.578Z,8.27
2022-08-24T09:31:43.820Z,8.65
2022-08-24T09:36:11.024Z,8.32
2022-08-24T09:40:50.202Z,9.02
2022-08-24T09:45:42.723Z,8.80
2022-08-24T09:50:24.874Z,8.13
2022-08-24T09:55:15.469Z,7.93
2022-08-24T09:59:44.822Z,8.95
2022-08-24T10:03:58.372Z,11.10
2022-08-24T10:08:48.363Z,7.10
2022-08-24T10:13:23.806Z,10.18
2022-08-24T10:18:20.242Z,8.50
2022-08-24T10:23:23.096Z,8.23
2022-08-24T10:28:39.577Z,9.35
2022-08-24T10:33:24.102Z,9.07
2022-08-24T10:37:43.913Z,9.95
2022-08-24T10:41:57.781Z,9.00
2022-08-24T10:46:36.309Z,9.30
2022-08-24T10:51:03.105Z,9.43
2022-08-24T10:55:24.862Z,9.60
2022-08-24T10:59:35.380Z,9.85
2022-08-24T11:04:02.146Z,10.48
2022-08-24T11:08:06.237Z,13.55
2022-08-24T11:12:23.779Z,9.63
2022-08-24T11:16:32.579Z,9.77
2022-08-24T11:20:40.621Z,10.27
2022-08-24T11:24:48.466Z,10.10
2022-08-24T11:28:58.691Z,9.95
2022-08-24T11:33:06.371Z,10.57
2022-08-24T11:37:14.282Z,8.23
2022-08-24T11:41:32.538Z,10.70
2022-08-24T11:45:45.295Z,10.82
2022-08-24T11:50:15.816Z,11.38
2022-08-24T11:54:38.882Z,9.85
2022-08-24T11:58:54.258Z,10.48
2022-08-24T12:03:17.833Z,10.55
2022-08-24T12:07:26.323Z,10.43
2022-08-24T12:11:46.994Z,10.18
2022-08-24T12:16:05.863Z,9.48
2022-08-24T12:20:34.169Z,9.30
2022-08-24T12:24:48.824Z,9.15
2022-08-24T12:28:55.316Z,8.95
2022-08-24T12:33:03.663Z,10.38
2022-08-24T12:37:16.354Z,11.38
2022-08-24T12:41:27.890Z,10.23
2022-08-24T12:45:30.151Z,11.98
2022-08-24T12:49:43.901Z,10.02
2022-08-24T12:54:08.194Z,9.98
2022-08-24T12:58:48.213Z,9.52
2022-08-24T13:03:09.414Z,7.68
2022-08-24T13:07:21.104Z,6.72
2022-08-24T13:11:33.375Z,8.23
2022-08-24T13:15:35.179Z,8.55
2022-08-24T13:19:40.965Z,9.07
2022-08-24T13:23:42.756Z,9.73
2022-08-24T13:27:47.020Z,11.15
2022-08-24T13:31:51.163Z,9.65
2022-08-24T13:35:58.749Z,9.00
2022-08-24T13:40:10.332Z,9.32
2022-08-24T13:44:38.921Z,9.75
2022-08-24T13:48:58.637Z,9.32
2022-08-24T13:53:40.577Z,9.98
2022-08-24T13:57:52.763Z,11.52
2022-08-24T14:02:25.802Z,11.25
2022-08-24T14:06:48.801Z,10.38
2022-08-24T14:11:06.836Z,10.63
2022-08-24T14:15:42.055Z,8.25
2022-08-24T14:20:09.033Z,8.90
2022-08-24T14:24:32.380Z,11.50
2022-08-24T14:28:42.303Z,9.43
2022-08-24T14:33:12.132Z,9.20
2022-08-24T14:37:13.818Z,9.02
2022-08-24T14:41:46.310Z,9.27
2022-08-24T14:46:00.284Z,8.13
2022-08-24T14:50:12.620Z,10.98
2022-08-24T14:54:56.755Z,9.32
2022-08-24T14:59:40.417Z,11.05
2022-08-24T15:04:01.352Z,9.75
2022-08-24T15:08:11.586Z,10.90
2022-08-24T15:12:36.370Z,11.77
2022-08-24T15:16:54.305Z,12.63
2022-08-24T15:21:10.514Z,12.80
2022-08-24T15:25:32.186Z,13.38
2022-08-24T15:29:35.089Z,13.82
2022-08-24T15:34:01.983Z,14.02
2022-08-24T15:38:38.000Z,13.95
2022-08-24T15:42:40.483Z,14.05
2022-08-24T15:46:48.251Z,13.65
2022-08-24T15:50:50.108Z,15.95
2022-08-24T15:55:03.011Z,14.63
2022-08-24T15:59:13.019Z,15.02
2022-08-24T16:03:54.751Z,15.55
2022-08-24T16:08:02.551Z,14.48
2022-08-24T16:12:22.905Z,14.55
2022-08-24T16:16:41.475Z,14.80
2022-08-24T16:20:43.793Z,13.82
2022-08-24T16:24:45.534Z,14.60
2022-08-24T16:28:47.996Z,15.10
2022-08-24T16:32:56.045Z,15.95
2022-08-24T16:36:58.262Z,13.63
2022-08-24T16:41:09.704Z,14.82
2022-08-24T16:45:14.908Z,12.02
2022-08-24T16:49:16.850Z,13.05
2022-08-24T16:53:18.894Z,12.40
2022-08-24T16:57:23.430Z,13.50
2022-08-24T17:01:25.286Z,12.82
2022-08-24T17:05:27.410Z,12.52
2022-08-24T17:09:29.214Z,12.90
2022-08-24T17:13:48.984Z,12.07
2022-08-24T17:18:02.180Z,14.40
2022-08-24T17:22:04.870Z,12.77
2022-08-24T17:26:20.375Z,13.10
2022-08-24T17:30:23.878Z,14.87
2022-08-24T17:34:30.461Z,14.07
2022-08-24T17:38:41.937Z,13.10
2022-08-24T17:42:51.846Z,14.50
2022-08-24T17:46:59.347Z,11.93
2022-08-24T17:51:02.913Z,11.77
2022-08-24T17:55:09.503Z,11.77
2022-08-24T17:59:25.354Z,13.83
2022-08-24T18:03:28.036Z,12.00
2022-08-24T18:07:51.776Z,13.17
2022-08-24T18:11:53.102Z,11.20
2022-08-24T18:15:58.063Z,11.90
2022-08-24T18:19:59.996Z,11.83
2022-08-24T18:24:06.128Z,12.67
2022-08-24T18:28:11.429Z,12.33
2022-08-24T18:32:13.572Z,14.87
2022-08-24T18:36:17.530Z,14.47
2022-08-24T18:40:21.162Z,15.87
2022-08-24T18:44:28.244Z,16.27
2022-08-24T18:48:35.256Z,12.47
2022-08-24T18:52:37.612Z,12.97
2022-08-24T18:56:42.088Z,13.57
2022-08-24T19:00:44.223Z,11.70
2022-08-24T19:04:47.227Z,12.83
2022-08-24T19:08:51.523Z,12.47
2022-08-24T19:12:57.107Z,13.53
2022-08-24T19:17:02.024Z,12.23
2022-08-24T19:21:03.876Z,13.87
2022-08-24T19:25:06.759Z,12.87
2022-08-24T19:29:09.091Z,13.50
2022-08-24T19:33:14.211Z,14.70
2022-08-24T19:37:16.756Z,16.07
2022-08-24T19:41:19.208Z,15.37
2022-08-24T19:45:43.591Z,15.20
2022-08-24T19:49:45.756Z,14.97
2022-08-24T19:53:47.854Z,14.30
2022-08-24T19:57:54.723Z,14.57
2022-08-24T20:01:56.886Z,16.17
2022-08-24T20:05:58.688Z,16.20
2022-08-24T20:10:00.586Z,17.87
2022-08-24T20:14:14.684Z,16.63
2022-08-24T20:18:16.735Z,16.87
2022-08-24T20:22:18.746Z,15.63
2022-08-24T20:26:21.847Z,16.83
2022-08-24T20:30:23.849Z,19.23
2022-08-24T20:34:25.653Z,19.63
2022-08-24T20:38:29.415Z,18.27
2022-08-24T20:42:33.864Z,17.40
2022-08-24T20:46:36.351Z,22.63
2022-08-24T20:50:38.522Z,19.87
2022-08-24T20:54:40.857Z,18.87
2022-08-24T20:58:42.761Z,17.70
2022-08-24T21:02:44.557Z,18.67
2022-08-24T21:06:46.489Z,23.60
2022-08-24T21:10:53.274Z,18.83
2022-08-24T21:14:55.191Z,19.17
2022-08-24T21:18:57.134Z,20.10
2022-08-24T21:22:59.011Z,19.57
2022-08-24T21:27:01.720Z,19.70
2022-08-24T21:31:06.302Z,19.43
2022-08-24T21:35:08.357Z,17.97
2022-08-24T21:39:11.932Z,17.80
2022-08-24T21:43:17.748Z,17.40
2022-08-24T21:47:19.815Z,18.47
2022-08-24T21:51:22.022Z,18.20
2022-08-24T21:55:24.569Z,17.77
2022-08-24T21:59:27.183Z,19.13
2022-08-24T22:03:31.528Z,19.07
2022-08-24T22:07:39.347Z,18.60
2022-08-24T22:11:41.645Z,19.07
2022-08-24T22:15:44.340Z,19.97
2022-08-24T22:19:47.322Z,17.90
2022-08-24T22:23:49.484Z,19.03
2022-08-24T22:27:51.515Z,18.97
2022-08-24T22:31:53.538Z,18.20
2022-08-24T22:35:55.330Z,17.77
2022-08-24T22:39:57.669Z,19.80
2022-08-24T22:44:17.820Z,17.27
2022-08-24T22:48:19.606Z,19.83
2022-08-24T22:52:21.490Z,19.10
2022-08-24T22:56:32.706Z,18.40
2022-08-24T23:00:39.489Z,20.40
2022-08-24T23:04:47.678Z,18.70
2022-08-24T23:08:49.499Z,21.70
2022-08-24T23:12:51.340Z,20.80
2022-08-24T23:16:53.176Z,18.87
2022-08-24T23:20:55.617Z,20.93
2022-08-24T23:24:58.479Z,18.60
2022-08-24T23:29:00.688Z,22.67
2022-08-24T23:33:02.634Z,21.93
2022-08-24T23:37:05.111Z,21.17
2022-08-24T23:41:08.603Z,24.77
2022-08-24T23:45:12.218Z,20.13
2022-08-24T23:49:15.368Z,25.83
2022-08-24T23:53:17.206Z,22.57
2022-08-24T23:57:19.025Z,26.67
